• Join FlightAware (Why Join?)
  • Login
  • US Flag 
05:23AM EDT


 

Airport Tracker/Info


-or-


 

Live Flight TrackerFlight Track Log ✈ TMC875 ✈ 17-Apr-2013 ✈ KAUS - KBTR

Flight Track Log - Related Links

Times and Time Zones

All times are in EDT time to prevent confusion due to time zone crossing. See the TMC875 flight status page for this flight to view local times or setup timezone preferences in your user account.

Time Position Orientation Groundspeed Altitude Reporting Facility
EDT Latitude Longitude Course Direction KTS MPH feet Rate Location/Type
03:50PM 30.1200 -97.5467 90° East 264 304 4,000  Level Houston Center
03:51PM 30.1453 -97.4656 70° East 274 315 4,500 1,500 Climbing Houston Center
03:52PM 30.2047 -97.3942 46° Northeast 303 349 7,100 2,700 Climbing Houston Center
03:53PM 30.2681 -97.3158 47° Northeast 326 375 10,100 2,880 Climbing Houston Center
03:54PM 30.3496 -97.0645 101° East  Level FlightAware Approximate
03:54PM 30.3317 -97.2386 46° Northeast 329 379 13,100  Level Houston Center
03:55PM 30.3333 -96.9471 90° East  Level FlightAware Approximate
03:55PM 30.3567 -97.1436 73° East 316 364 15,800  Level Houston Center
03:56PM 30.3492 -97.0239 94° East 320 368 18,400 2,160 Climbing Houston Center
03:57PM 30.3431 -96.9097 94° East 346 398 20,400 1,920 Climbing Houston Center
03:58PM 30.3361 -96.7931 94° East 359 413 22,500 1,920 Climbing Houston Center
03:59PM 30.3281 -96.6692 94° East 378 435 24,400 1,680 Climbing Houston Center
04:00PM 30.3200 -96.5381 94° East 401 461 26,000 1,380 Climbing Houston Center
04:01PM 30.3106 -96.3983 94° East 429 494 27,300 1,380 Climbing Houston Center
04:02PM 30.2997 -96.2283 94° East 449 517 28,900 1,320 Climbing Houston Center
04:03PM 30.2903 -96.0781 94° East 463 533 30,100 1,200 Climbing Houston Center
04:04PM 30.2961 -95.9281 87° East 472 543 31,400 1,200 Climbing Houston Center
04:05PM 30.3061 -95.7725 86° East 482 555 32,700 720 Climbing Houston Center
04:06PM 30.3136 -95.6136 87° East 492 566 33,000 120 Climbing Houston Center
04:07PM 30.3242 -95.4494 86° East 508 585 33,000  Level Houston Center
04:08PM 30.3336 -95.2833 86° East 515 593 33,000  Level Houston Center
04:09PM 30.3439 -95.0839 87° East 518 596 33,000  Level Houston Center
04:11PM 30.3517 -94.9183 87° East 515 593 33,000  Level Houston Center
04:12PM 30.3611 -94.7547 86° East 509 586 33,000  Level Houston Center
04:13PM 30.3706 -94.5914 86° East 507 583 33,000  Level Houston Center
04:14PM 30.3750 -94.4228 88° East 514 592 33,000  Level Houston Center
04:15PM 30.3842 -94.2258 87° East 514 592 33,000  Level Houston Center
04:16PM 30.3914 -94.0603 87° East 516 594 33,000  Level Houston Center
04:17PM 30.3983 -93.8950 87° East 516 594 33,000 -240 Level Houston Center
04:18PM 30.4058 -93.7311 87° East 514 592 32,600 -1,020 Descending Houston Center
04:19PM 30.4142 -93.5467 87° East 513 590 31,000 -1,500 Descending Houston Center
04:20PM 30.4192 -93.3867 88° East 501 577 29,600 -1,380 Descending Houston Center
04:21PM 30.4253 -93.2319 87° East 487 560 28,200 -1,380 Descending Houston Center
04:22PM 30.4314 -93.0817 87° East 469 540 26,800 -1,440 Descending Houston Center
04:23PM 30.4369 -92.9364 87° East 456 525 25,300 -1,560 Descending Houston Center
04:24PM 30.4417 -92.7683 88° East 439 505 23,600 -1,500 Descending Houston Center
04:25PM 30.4464 -92.6314 88° East 432 497 22,200 -1,440 Descending Houston Center
04:26PM 30.4511 -92.4992 88° East 417 480 20,700 -1,440 Descending Houston Center
04:27PM 30.4550 -92.3678 88° East 411 473 19,300 -1,380 Descending Houston Center
04:28PM 30.4603 -92.2403 87° East 402 463 17,900 -1,500 Descending Houston Center
04:29PM 30.4647 -92.0914 88° East 389 448 16,200 -1,560 Descending Houston Center
04:30PM 30.4689 -91.9694 88° East 383 441 14,700 -1,680 Descending Houston Center
04:31PM 30.4725 -91.8561 88° East 360 414 12,700 -1,800 Descending Houston Center
04:32PM 30.4747 -91.7564 88° East 325 374 11,000 -840 Descending Houston Center
04:33PM 30.4753 -91.6617 90° East 304 350 11,000 -1,320 Level Houston Center
04:34PM 30.4806 -91.5456 87° East 301 346 8,300 -1,500 Descending Houston Center
04:35PM 30.4817 -91.4583 89° East 282 325 8,000 -180 Descending Houston Center
04:36PM 30.5475 -91.4158 29° Northeast 295 339 8,000 -180 Level Houston Center
04:37PM 30.6275 -91.3836 19° North 297 342 7,700 -1,200 Descending Houston Center
04:38PM 30.6931 -91.3244 38° Northeast 301 346 5,500 -1,680 Descending Houston Center
04:40PM 30.7633 -91.2636 37° Northeast 293 337 4,200 -1,260 Descending Houston Center
04:42PM 30.5726 -91.1694 157° South  Level Estimated
04:49PM 30.5329 -91.1499 157° South  Level Estimated
04:50PM 30.5329 -91.1499 148° Southeast  Level Estimated
04:51PM 30.5329 -91.1499 148° Southeast  Level Estimated
04:52PM 30.5329 -91.1499 148° Southeast  Level Estimated